Time;durP1;ratioP1;P1;durP2;ratioP2;P2;SDS_P1;SDS_P2;PMS_P1;PMS_P2;Temp;Humidity;BMP_temperature;BMP_pressure;BME280_temperature;BME280_humidity;BME280_pressure;Samples;Min_cycle;Max_cycle;Signal;HPM_P1;HPM_P2
2024/04/06 00:00:39;;;;;;;0.10;0.10;;;;;;;13.65;100.00;99170.44;5035500;28;20053;-58
2024/04/06 00:03:09;;;;;;;0.10;0.10;;;;;;;13.77;100.00;99160.25;5032016;28;20527;-58
2024/04/06 00:05:35;;;;;;;0.05;0.05;;;;;;;13.77;100.00;99149.47;5031924;28;20057;-57
2024/04/06 00:08:02;;;;;;;0.10;0.10;;;;;;;13.77;100.00;99147.59;5028449;28;20042;-57
2024/04/06 00:10:28;;;;;;;0.10;0.10;;;;;;;13.45;100.00;99155.81;5037677;28;20037;-58
2024/04/06 00:12:55;;;;;;;0.10;0.10;;;;;;;13.50;100.00;99146.97;5038028;28;20049;-58
2024/04/06 00:15:21;;;;;;;0.10;0.10;;;;;;;13.70;100.00;99144.31;5036472;28;20060;-57
2024/04/06 00:17:48;;;;;;;0.10;0.10;;;;;;;13.81;100.00;99147.88;5036781;28;20056;-58
2024/04/06 00:20:15;;;;;;;0.10;0.10;;;;;;;13.79;100.00;99150.03;5030210;28;20049;-58
2024/04/06 00:22:42;;;;;;;0.10;0.10;;;;;;;13.79;100.00;99145.44;5034412;28;20052;-58
2024/04/06 00:25:09;;;;;;;0.10;0.10;;;;;;;13.81;100.00;99147.88;5035584;28;20518;-58
2024/04/06 00:27:36;;;;;;;0.10;0.10;;;;;;;13.88;100.00;99151.13;5036289;28;20163;-57
2024/04/06 00:30:02;;;;;;;0.10;0.10;;;;;;;13.90;100.00;99146.25;5035270;28;20052;-57
2024/04/06 00:32:29;;;;;;;0.20;0.20;;;;;;;13.86;100.00;99139.81;5036925;28;20543;-58
2024/04/06 00:34:55;;;;;;;0.10;0.10;;;;;;;13.85;100.00;99143.56;5033523;28;20099;-58
2024/04/06 00:37:24;;;;;;;0.10;0.10;;;;;;;13.83;100.00;99140.34;5034922;28;20045;-57
2024/04/06 00:39:50;;;;;;;0.00;0.00;;;;;;;13.89;100.00;99146.56;5032712;28;20037;-58
2024/04/06 00:42:17;;;;;;;0.10;0.10;;;;;;;13.75;100.00;99138.97;5035947;28;20068;-58
2024/04/06 00:44:43;;;;;;;0.10;0.10;;;;;;;13.59;100.00;99137.31;5037639;28;20047;-58
2024/04/06 00:47:10;;;;;;;0.10;0.10;;;;;;;13.66;100.00;99139.75;5036654;28;20785;-57
2024/04/06 00:49:36;;;;;;;0.10;0.10;;;;;;;13.62;100.00;99139.47;5029406;28;20148;-58
2024/04/06 00:52:03;;;;;;;0.10;0.10;;;;;;;13.55;100.00;99131.66;5035948;28;20206;-58
2024/04/06 00:54:31;;;;;;;0.10;0.10;;;;;;;13.46;100.00;99129.72;5031827;28;20728;-58
2024/04/06 00:56:58;;;;;;;0.10;0.10;;;;;;;13.34;100.00;99140.72;5037731;28;20570;-57
2024/04/06 00:59:24;;;;;;;0.10;0.10;;;;;;;13.15;100.00;99127.69;5029345;28;20136;-58
2024/04/06 01:01:51;;;;;;;0.10;0.10;;;;;;;13.27;100.00;99115.91;5034949;28;20708;-57
2024/04/06 01:04:17;;;;;;;0.10;0.10;;;;;;;13.33;100.00;99125.66;5034277;28;20052;-57
2024/04/06 01:06:44;;;;;;;0.10;0.10;;;;;;;13.44;100.00;99138.06;5032323;28;20151;-58
2024/04/06 01:09:10;;;;;;;0.10;0.10;;;;;;;13.37;100.00;99132.91;5030307;28;20128;-58
2024/04/06 01:11:39;;;;;;;0.10;0.10;;;;;;;13.44;100.00;99132.66;5029547;28;20041;-58
2024/04/06 01:14:05;;;;;;;0.10;0.10;;;;;;;13.36;100.00;99130.50;5036058;28;20084;-57
2024/04/06 01:16:32;;;;;;;0.10;0.10;;;;;;;13.37;100.00;99126.72;5033297;28;20049;-58
2024/04/06 01:18:58;;;;;;;0.10;0.10;;;;;;;13.48;100.00;99123.00;5032996;28;20479;-57
2024/04/06 01:21:26;;;;;;;0.10;0.10;;;;;;;13.42;100.00;99118.66;5043231;28;20041;-58
2024/04/06 01:23:52;;;;;;;0.10;0.10;;;;;;;13.48;100.00;99128.38;5045943;28;20435;-58
2024/04/06 01:26:21;;;;;;;0.10;0.10;;;;;;;13.53;100.00;99122.22;5035203;28;20083;-58
2024/04/06 01:28:47;;;;;;;0.10;0.10;;;;;;;13.53;100.00;99117.63;5032758;28;20148;-57
2024/04/06 01:31:14;;;;;;;0.10;0.10;;;;;;;13.53;100.00;99125.72;5034282;28;20041;-58
2024/04/06 01:33:40;;;;;;;0.10;0.10;;;;;;;13.50;100.00;99122.72;5033655;28;20037;-58
2024/04/06 01:36:08;;;;;;;0.10;0.10;;;;;;;13.27;100.00;99121.28;5028680;28;20045;-57
2024/04/06 01:38:34;;;;;;;0.10;0.10;;;;;;;13.15;100.00;99119.63;5033876;28;20055;-58
2024/04/06 01:41:01;;;;;;;0.10;0.10;;;;;;;13.03;100.00;99119.00;5031860;28;20037;-57
2024/04/06 01:43:28;;;;;;;0.10;0.10;;;;;;;13.03;100.00;99120.88;5029287;28;20111;-57
2024/04/06 01:45:55;;;;;;;0.10;0.10;;;;;;;13.02;100.00;99120.06;5029375;28;20071;-58
2024/04/06 01:48:21;;;;;;;0.20;0.20;;;;;;;12.70;100.00;99122.81;5035351;28;20136;-57
2024/04/06 01:50:48;;;;;;;0.10;0.10;;;;;;;12.71;100.00;99124.47;5035327;28;20074;-57
2024/04/06 01:53:14;;;;;;;0.13;0.13;;;;;;;12.57;100.00;99132.16;5030579;28;20065;-57
2024/04/06 01:55:41;;;;;;;0.20;0.20;;;;;;;12.65;100.00;99133.53;5031183;28;20102;-57
2024/04/06 01:58:07;;;;;;;0.08;0.08;;;;;;;12.49;100.00;99130.75;5027010;28;20069;-58
2024/04/06 02:00:36;;;;;;;0.10;0.10;;;;;;;12.65;100.00;99126.28;5032262;28;20075;-57
2024/04/06 02:03:04;;;;;;;0.10;0.10;;;;;;;12.54;100.00;99119.22;5030209;28;20139;-58
2024/04/06 02:05:31;;;;;;;0.10;0.10;;;;;;;12.42;100.00;99116.72;5035531;28;20527;-57
2024/04/06 02:07:57;;;;;;;0.00;0.00;;;;;;;12.49;100.00;99117.31;5032115;28;20046;-57
2024/04/06 02:10:24;;;;;;;0.10;0.10;;;;;;;12.41;100.00;99117.00;5032938;28;20044;-58
2024/04/06 02:12:50;;;;;;;0.10;0.10;;;;;;;12.51;100.00;99120.56;5036843;28;20041;-57
2024/04/06 02:15:17;;;;;;;0.10;0.10;;;;;;;12.70;100.00;99118.28;5033282;28;20793;-57
2024/04/06 02:17:44;;;;;;;0.17;0.17;;;;;;;12.94;100.00;99112.50;5042564;28;20036;-62
2024/04/06 02:20:12;;;;;;;0.10;0.10;;;;;;;12.97;100.00;99120.03;5034962;28;20502;-57
2024/04/06 02:22:38;;;;;;;0.13;0.13;;;;;;;12.86;100.00;99121.06;5030992;28;20143;-58
2024/04/06 02:25:05;;;;;;;0.10;0.10;;;;;;;12.56;100.00;99117.09;5028891;28;20417;-58
2024/04/06 02:27:32;;;;;;;0.10;0.10;;;;;;;12.24;100.00;99123.28;5047818;28;20126;-58
2024/04/06 02:29:59;;;;;;;0.15;0.15;;;;;;;12.37;100.00;99123.94;5027319;28;20151;-58
2024/04/06 02:32:26;;;;;;;0.10;0.10;;;;;;;12.11;100.00;99126.41;5029789;28;20052;-58
2024/04/06 02:34:54;;;;;;;0.10;0.10;;;;;;;12.03;100.00;99125.00;5036659;28;20041;-57
2024/04/06 02:37:21;;;;;;;0.10;0.10;;;;;;;12.22;100.00;99116.56;5035877;28;20045;-58
2024/04/06 02:39:48;;;;;;;0.20;0.20;;;;;;;12.44;100.00;99113.78;5031674;28;20088;-58
2024/04/06 02:42:14;;;;;;;0.00;0.00;;;;;;;12.41;100.00;99107.03;5035463;28;20040;-57
2024/04/06 02:44:41;;;;;;;0.10;0.10;;;;;;;12.41;100.00;99103.56;5034943;28;20707;-58
2024/04/06 02:47:07;;;;;;;0.20;0.20;;;;;;;12.43;100.00;99112.16;5036903;28;20072;-58
2024/04/06 02:49:34;;;;;;;0.10;0.10;;;;;;;12.36;100.00;99100.81;5032996;28;20037;-58
2024/04/06 02:52:02;;;;;;;0.10;0.10;;;;;;;12.34;100.00;99095.69;5050193;28;20041;-58
2024/04/06 02:54:29;;;;;;;0.20;0.20;;;;;;;12.58;100.00;99093.47;5032774;28;20801;-57
2024/04/06 02:56:55;;;;;;;0.10;0.10;;;;;;;12.62;100.00;99099.91;5037253;28;20131;-58
2024/04/06 02:59:22;;;;;;;0.20;0.20;;;;;;;12.78;100.00;99102.69;5036304;28;20167;-57
2024/04/06 03:01:48;;;;;;;0.17;0.17;;;;;;;12.73;100.00;99098.94;5039230;28;20045;-58
2024/04/06 03:04:15;;;;;;;0.10;0.10;;;;;;;12.29;100.00;99107.22;5039885;28;20057;-57
2024/04/06 03:06:41;;;;;;;0.10;0.10;;;;;;;12.24;100.00;99101.78;5036549;28;20540;-57
2024/04/06 03:09:09;;;;;;;0.20;0.20;;;;;;;12.15;100.00;99100.63;5037571;28;20488;-57
2024/04/06 03:11:35;;;;;;;0.00;0.00;;;;;;;12.00;100.00;99097.81;5038282;28;20687;-57
2024/04/06 03:14:02;;;;;;;0.10;0.10;;;;;;;11.86;100.00;99090.19;5032992;28;20044;-58
2024/04/06 03:16:28;;;;;;;0.10;0.10;;;;;;;11.93;100.00;99075.72;5038698;28;20098;-58
2024/04/06 03:18:56;;;;;;;0.10;0.10;;;;;;;12.14;100.00;99074.03;5051254;28;20454;-57
2024/04/06 03:21:22;;;;;;;0.20;0.20;;;;;;;12.33;100.00;99074.44;5037296;28;20119;-58
2024/04/06 03:23:49;;;;;;;0.10;0.10;;;;;;;12.50;100.00;99069.72;5034346;28;20049;-57
2024/04/06 03:26:16;;;;;;;0.20;0.20;;;;;;;12.64;100.00;99073.59;5040646;28;20106;-57
2024/04/06 03:28:43;;;;;;;0.10;0.10;;;;;;;12.75;100.00;99082.53;5034027;28;20879;-57
2024/04/06 03:31:09;;;;;;;0.10;0.10;;;;;;;12.79;100.00;99080.94;5039782;28;20069;-58
2024/04/06 03:33:36;;;;;;;0.17;0.17;;;;;;;12.76;100.00;99076.09;5038338;28;20061;-57
2024/04/06 03:36:03;;;;;;;0.20;0.20;;;;;;;12.67;100.00;99075.75;5040791;28;20135;-58
2024/04/06 03:38:30;;;;;;;0.15;0.15;;;;;;;12.60;100.00;99075.16;5033185;28;20045;-57
2024/04/06 03:40:57;;;;;;;0.10;0.10;;;;;;;12.56;100.00;99074.09;5036395;28;20554;-58
2024/04/06 03:43:26;;;;;;;0.10;0.10;;;;;;;12.62;100.00;99074.91;5032172;28;20037;-58
2024/04/06 03:45:54;;;;;;;0.10;0.10;;;;;;;12.47;100.00;99083.69;5037710;28;20125;-57
2024/04/06 03:48:21;;;;;;;0.10;0.10;;;;;;;12.45;100.00;99080.44;5035097;28;20104;-57
2024/04/06 03:50:47;;;;;;;0.20;0.20;;;;;;;12.44;100.00;99092.28;5036597;28;20134;-57
2024/04/06 03:53:15;;;;;;;0.20;0.20;;;;;;;12.39;100.00;99090.34;5030801;28;20044;-57
2024/04/06 03:55:41;;;;;;;0.10;0.10;;;;;;;12.25;100.00;99095.34;5033889;28;20460;-58
2024/04/06 03:58:08;;;;;;;0.10;0.10;;;;;;;12.30;100.00;99103.47;5035905;28;20049;-57
2024/04/06 04:00:36;;;;;;;0.10;0.10;;;;;;;12.19;100.00;99096.38;5031725;28;20128;-58
2024/04/06 04:03:03;;;;;;;0.10;0.10;;;;;;;12.13;100.00;99100.09;5032845;28;20050;-58
2024/04/06 04:05:29;;;;;;;0.10;0.10;;;;;;;12.14;100.00;99096.34;5033735;28;20061;-57
2024/04/06 04:07:56;;;;;;;0.15;0.15;;;;;;;11.91;100.00;99089.44;5037996;28;20128;-57
2024/04/06 04:10:22;;;;;;;0.10;0.10;;;;;;;11.91;100.00;99091.31;5041065;28;20061;-57
2024/04/06 04:12:49;;;;;;;0.20;0.20;;;;;;;11.85;100.00;99088.50;5032594;28;20048;-57
2024/04/06 04:15:15;;;;;;;0.17;0.17;;;;;;;11.86;100.00;99090.19;5037633;28;20051;-58
2024/04/06 04:17:44;;;;;;;0.10;0.10;;;;;;;11.82;100.00;99090.91;5033468;28;20037;-58
2024/04/06 04:20:10;;;;;;;0.10;0.10;;;;;;;11.79;100.00;99096.78;5036380;28;20213;-57
2024/04/06 04:22:37;;;;;;;0.20;0.20;;;;;;;11.77;100.00;99088.97;5032522;28;20040;-57
2024/04/06 04:25:03;;;;;;;0.20;0.20;;;;;;;11.86;100.00;99098.25;5039661;28;20185;-58
2024/04/06 04:27:32;;;;;;;0.10;0.10;;;;;;;11.72;100.00;99096.97;5040758;28;20041;-57
2024/04/06 04:29:58;;;;;;;0.13;0.13;;;;;;;11.75;100.00;99090.28;5035434;28;20041;-57
2024/04/06 04:32:25;;;;;;;0.10;0.10;;;;;;;11.82;100.00;99102.47;5034867;28;20041;-58
2024/04/06 04:34:52;;;;;;;0.20;0.20;;;;;;;11.72;100.00;99101.56;5034477;28;20132;-58
2024/04/06 04:37:19;;;;;;;0.20;0.20;;;;;;;11.79;100.00;99102.97;5034728;28;20088;-57
2024/04/06 04:39:45;;;;;;;0.20;0.20;;;;;;;11.71;100.00;99113.38;5036778;28;20044;-58
2024/04/06 04:42:12;;;;;;;0.20;0.20;;;;;;;11.53;100.00;99120.69;5035499;28;20045;-58
2024/04/06 04:44:38;;;;;;;0.10;0.10;;;;;;;11.63;100.00;99125.34;5029468;28;20628;-58
2024/04/06 04:47:07;;;;;;;0.20;0.20;;;;;;;11.55;100.00;99117.72;5037892;28;20045;-58
2024/04/06 04:49:34;;;;;;;0.13;0.13;;;;;;;11.52;100.00;99115.56;5034445;28;20123;-57
2024/04/06 04:52:03;;;;;;;0.20;0.20;;;;;;;11.36;100.00;99120.75;5033836;28;20048;-58
2024/04/06 04:54:29;;;;;;;0.20;0.20;;;;;;;11.44;100.00;99117.63;5036065;28;20388;-57
2024/04/06 04:56:56;;;;;;;0.10;0.10;;;;;;;11.39;100.00;99111.41;5035889;28;20563;-58
2024/04/06 04:59:24;;;;;;;0.20;0.20;;;;;;;11.31;100.00;99107.28;5033637;28;20073;-58
2024/04/06 05:01:52;;;;;;;0.20;0.20;;;;;;;11.39;100.00;99109.50;5030757;28;20060;-58
2024/04/06 05:04:19;;;;;;;0.13;0.13;;;;;;;11.48;100.00;99103.69;5034685;28;20042;-57
2024/04/06 05:06:47;;;;;;;0.20;0.20;;;;;;;12.61;100.00;99102.88;5029930;28;20055;-58
2024/04/06 05:09:17;;;;;;;0.20;0.20;;;;;;;12.81;100.00;99108.38;5035561;28;20039;-58
2024/04/06 05:11:46;;;;;;;0.20;0.20;;;;;;;12.72;100.00;99099.97;5034182;28;20048;-58
2024/04/06 05:14:12;;;;;;;0.20;0.20;;;;;;;12.74;100.00;99103.22;5034983;28;20088;-58
2024/04/06 05:16:39;;;;;;;0.10;0.10;;;;;;;13.13;100.00;99111.00;5035538;28;20175;-58
2024/04/06 05:19:07;;;;;;;0.10;0.10;;;;;;;13.10;100.00;99108.81;5036068;28;20458;-58
2024/04/06 05:21:34;;;;;;;0.20;0.20;;;;;;;13.34;100.00;99116.47;5032743;28;20063;-58
2024/04/06 05:24:00;;;;;;;0.28;0.28;;;;;;;13.02;100.00;99122.75;5037463;28;20037;-58
2024/04/06 05:26:29;;;;;;;0.10;0.10;;;;;;;13.15;100.00;99135.75;5032769;28;20056;-58
2024/04/06 05:28:55;;;;;;;0.20;0.20;;;;;;;12.97;100.00;99136.19;5036023;28;20527;-57
2024/04/06 05:31:22;;;;;;;0.25;0.25;;;;;;;13.36;100.00;99142.06;5036344;28;20508;-58
2024/04/06 05:33:48;;;;;;;0.20;0.20;;;;;;;14.65;100.00;99152.03;5037834;28;20040;-58
2024/04/06 05:36:16;;;;;;;0.17;0.17;;;;;;;15.14;97.11;99147.91;5037157;28;20049;-58
2024/04/06 05:38:44;;;;;;;0.10;0.10;;;;;;;15.90;94.53;99135.16;5031271;28;20051;-58
2024/04/06 05:41:15;;;;;;;0.20;0.20;;;;;;;15.98;93.95;99126.47;5021270;28;20697;-58
2024/04/06 05:43:42;;;;;;;0.10;0.10;;;;;;;16.24;92.29;99142.53;5034229;28;20074;-58
2024/04/06 05:46:12;;;;;;;0.10;0.10;;;;;;;16.61;86.44;99131.94;5033080;28;20065;-58
2024/04/06 05:48:38;;;;;;;0.10;0.10;;;;;;;17.76;77.39;99136.63;5035277;28;20051;-57
2024/04/06 05:51:06;;;;;;;0.10;0.10;;;;;;;16.65;82.04;99142.19;5034091;28;20045;-57
2024/04/06 05:53:32;;;;;;;0.10;0.10;;;;;;;17.49;80.46;99139.16;5034127;28;20069;-58
2024/04/06 05:55:59;;;;;;;0.10;0.10;;;;;;;18.47;72.42;99136.69;5031188;28;20404;-58
2024/04/06 05:58:25;;;;;;;0.10;0.10;;;;;;;18.04;73.26;99147.66;5031820;28;20480;-58
2024/04/06 06:00:53;;;;;;;0.10;0.10;;;;;;;18.31;76.69;99145.06;5030522;28;20777;-58
2024/04/06 06:03:20;;;;;;;0.20;0.15;;;;;;;18.03;75.51;99141.44;5032618;28;20064;-58
2024/04/06 06:05:47;;;;;;;0.10;0.10;;;;;;;17.33;77.12;99152.91;5034224;28;20107;-58
2024/04/06 06:08:13;;;;;;;0.10;0.10;;;;;;;17.78;77.37;99152.63;5032215;28;20060;-58
2024/04/06 06:10:40;;;;;;;0.00;0.00;;;;;;;16.14;82.82;99152.31;5037461;28;20049;-58
2024/04/06 06:13:06;;;;;;;0.05;0.05;;;;;;;16.60;85.69;99141.16;5033110;28;20053;-57
2024/04/06 06:15:33;;;;;;;0.03;0.03;;;;;;;16.05;86.30;99143.19;5046487;28;20590;-58
2024/04/06 06:18:00;;;;;;;0.00;0.00;;;;;;;16.35;88.39;99144.06;5034014;28;20044;-57
2024/04/06 06:20:28;;;;;;;0.00;0.00;;;;;;;16.13;85.78;99153.41;5041064;28;20519;-58
2024/04/06 06:22:54;;;;;;;0.10;0.10;;;;;;;16.22;85.40;99156.31;5036773;28;20049;-57
2024/04/06 06:25:21;;;;;;;0.10;0.10;;;;;;;16.09;85.77;99173.97;5042136;28;20518;-58
2024/04/06 06:27:47;;;;;;;0.10;0.10;;;;;;;16.75;83.52;99169.97;5039732;28;20059;-57
2024/04/06 06:30:14;;;;;;;0.10;0.10;;;;;;;17.91;75.52;99178.22;5036805;28;20470;-58
2024/04/06 06:32:40;;;;;;;0.17;0.17;;;;;;;19.27;69.94;99181.75;5039294;28;20051;-58
2024/04/06 06:35:09;;;;;;;0.10;0.10;;;;;;;20.37;62.71;99172.63;5039997;28;20756;-58
2024/04/06 06:37:36;;;;;;;0.10;0.10;;;;;;;20.51;59.80;99174.47;5037483;28;20553;-62
2024/04/06 06:40:04;;;;;;;0.10;0.10;;;;;;;21.40;57.20;99189.94;5025177;28;20126;-58
2024/04/06 06:42:30;;;;;;;0.00;0.00;;;;;;;20.14;63.67;99187.31;5035813;28;20056;-58
2024/04/06 06:44:57;;;;;;;0.22;0.10;;;;;;;20.37;62.22;99183.50;5039560;28;20044;-58
2024/04/06 06:47:24;;;;;;;0.10;0.10;;;;;;;21.08;61.86;99177.41;5032316;28;20041;-58
2024/04/06 06:49:52;;;;;;;0.00;0.00;;;;;;;21.07;60.91;99175.81;5036749;28;20071;-58
2024/04/06 06:52:20;;;;;;;0.10;0.10;;;;;;;20.56;61.42;99174.38;5037102;28;20052;-58
2024/04/06 06:54:47;;;;;;;0.00;0.00;;;;;;;20.78;61.20;99168.91;5033405;28;20048;-58
2024/04/06 06:57:13;;;;;;;0.00;0.00;;;;;;;20.91;60.45;99178.13;5033977;28;20052;-58
2024/04/06 06:59:40;;;;;;;0.00;0.00;;;;;;;21.25;61.10;99177.50;5038319;28;20047;-58
2024/04/06 07:02:06;;;;;;;0.00;0.00;;;;;;;21.44;57.64;99171.84;5040052;28;20187;-58
2024/04/06 07:04:35;;;;;;;0.10;0.10;;;;;;;21.49;59.65;99171.69;5039677;28;20643;-58
2024/04/06 07:07:02;;;;;;;0.00;0.00;;;;;;;21.25;56.82;99169.31;5038697;28;20047;-58
2024/04/06 07:09:30;;;;;;;0.00;0.00;;;;;;;22.04;56.14;99159.44;5039416;28;20064;-58
2024/04/06 07:11:56;;;;;;;0.00;0.00;;;;;;;21.47;57.41;99157.56;5040193;28;20052;-58
2024/04/06 07:14:23;;;;;;;0.00;0.00;;;;;;;21.49;55.46;99149.88;5039102;28;20037;-58
2024/04/06 07:16:49;;;;;;;0.05;0.05;;;;;;;21.83;54.49;99152.97;5033735;28;20056;-58
2024/04/06 07:19:16;;;;;;;0.00;0.00;;;;;;;21.44;56.62;99154.66;5036401;28;20498;-58
2024/04/06 07:21:43;;;;;;;0.00;0.00;;;;;;;18.97;66.34;99153.25;5031253;28;20052;-58
2024/04/06 07:24:10;;;;;;;0.10;0.10;;;;;;;19.28;69.63;99150.75;5034719;28;20470;-58
2024/04/06 07:26:38;;;;;;;0.10;0.10;;;;;;;21.00;59.50;99153.66;5038495;28;20115;-58
2024/04/06 07:29:05;;;;;;;0.00;0.00;;;;;;;21.51;56.01;99149.53;5036338;28;20044;-57
2024/04/06 07:31:31;;;;;;;0.00;0.00;;;;;;;18.15;66.88;99146.44;5036245;28;20476;-58
2024/04/06 07:33:58;;;;;;;0.00;0.00;;;;;;;20.64;59.68;99140.94;5036279;28;20545;-58
2024/04/06 07:36:24;;;;;;;0.00;0.00;;;;;;;21.59;58.18;99132.41;5039993;28;20492;-58
2024/04/06 07:38:52;;;;;;;0.00;0.00;;;;;;;21.20;57.92;99146.84;5033105;28;20056;-58
2024/04/06 07:41:18;;;;;;;0.00;0.00;;;;;;;22.02;56.77;99149.97;5038840;28;20137;-57
2024/04/06 07:43:46;;;;;;;0.00;0.00;;;;;;;20.91;54.87;99153.59;5034489;28;20057;-57
2024/04/06 07:46:12;;;;;;;0.00;0.00;;;;;;;21.79;57.00;99152.84;5037407;28;20037;-57
2024/04/06 07:48:39;;;;;;;0.00;0.00;;;;;;;20.95;58.15;99142.91;5031879;28;20057;-58
2024/04/06 07:51:05;;;;;;;0.00;0.00;;;;;;;22.11;54.82;99153.47;5035139;28;20041;-57
2024/04/06 07:53:32;;;;;;;0.00;0.00;;;;;;;20.45;57.95;99149.31;5035107;28;20094;-59
2024/04/06 07:55:59;;;;;;;0.00;0.00;;;;;;;21.70;57.20;99150.06;5035784;28;20128;-57
2024/04/06 07:58:26;;;;;;;0.00;0.00;;;;;;;21.06;57.44;99144.22;5048443;28;20568;-58
2024/04/06 08:00:53;;;;;;;0.00;0.00;;;;;;;20.36;57.22;99146.50;5036341;28;20072;-57
2024/04/06 08:03:20;;;;;;;0.00;0.00;;;;;;;20.93;58.31;99150.59;5030988;28;20676;-57
2024/04/06 08:05:49;;;;;;;0.00;0.00;;;;;;;22.55;53.51;99149.63;5034970;28;20052;-57
2024/04/06 08:08:16;;;;;;;0.00;0.00;;;;;;;21.15;56.48;99155.97;5035841;28;20537;-58
2024/04/06 08:10:42;;;;;;;0.00;0.00;;;;;;;20.97;60.42;99148.84;5032510;28;20037;-57
2024/04/06 08:13:12;;;;;;;0.00;0.00;;;;;;;19.70;63.00;99148.84;5033500;28;20045;-57
2024/04/06 08:15:38;;;;;;;0.00;0.00;;;;;;;19.68;68.00;99131.22;5037916;28;20047;-57
2024/04/06 08:18:06;;;;;;;0.00;0.00;;;;;;;21.48;58.38;99137.34;5034193;28;20048;-57
2024/04/06 08:20:32;;;;;;;0.00;0.00;;;;;;;20.82;61.07;99142.69;5032220;28;20052;-58
2024/04/06 08:22:59;;;;;;;0.00;0.00;;;;;;;21.85;58.40;99137.91;5038634;28;20041;-57
2024/04/06 08:25:26;;;;;;;0.00;0.00;;;;;;;20.93;59.33;99134.25;5034987;28;20040;-57
2024/04/06 08:27:53;;;;;;;0.00;0.00;;;;;;;21.59;55.20;99146.06;5035479;28;20056;-57
2024/04/06 08:30:19;;;;;;;0.00;0.00;;;;;;;21.69;56.81;99145.75;5035596;28;20252;-57
2024/04/06 08:32:46;;;;;;;0.00;0.00;;;;;;;20.99;56.27;99138.41;5035800;28;20053;-57
2024/04/06 08:35:14;;;;;;;0.00;0.00;;;;;;;20.21;59.62;99127.81;5031986;28;20162;-57
2024/04/06 08:37:41;;;;;;;0.00;0.00;;;;;;;22.77;55.59;99137.69;5031885;28;20052;-57
2024/04/06 08:40:09;;;;;;;0.00;0.00;;;;;;;19.06;63.86;99143.28;5038139;28;20570;-58
2024/04/06 08:42:40;;;;;;;0.00;0.00;;;;;;;21.40;59.52;99131.88;5035552;28;20081;-58
2024/04/06 08:45:06;;;;;;;0.00;0.00;;;;;;;21.59;56.97;99131.59;5043316;28;20744;-58
2024/04/06 08:47:33;;;;;;;0.00;0.00;;;;;;;22.80;54.91;99130.78;5032477;28;20048;-58
2024/04/06 08:50:00;;;;;;;0.00;0.00;;;;;;;22.62;55.79;99121.84;5035650;28;20068;-58
2024/04/06 08:52:29;;;;;;;0.00;0.00;;;;;;;22.52;55.58;99120.25;5032991;28;20049;-58
2024/04/06 08:54:55;;;;;;;0.00;0.00;;;;;;;23.68;51.44;99112.84;5032277;28;20040;-58
2024/04/06 08:57:22;;;;;;;0.00;0.00;;;;;;;22.31;54.00;99124.75;5034005;28;20052;-58
2024/04/06 08:59:48;;;;;;;0.00;0.00;;;;;;;21.37;55.87;99125.13;5033147;28;20037;-63
2024/04/06 09:02:15;;;;;;;0.00;0.00;;;;;;;22.22;54.12;99130.25;5034533;28;20659;-58
2024/04/06 09:04:41;;;;;;;0.00;0.00;;;;;;;22.52;53.11;99130.38;5031098;28;20069;-58
2024/04/06 09:07:08;;;;;;;0.00;0.00;;;;;;;23.06;50.77;99135.38;5037589;28;20427;-58
2024/04/06 09:09:37;;;;;;;0.00;0.00;;;;;;;23.29;49.99;99131.28;5034104;28;20072;-58
2024/04/06 09:12:04;;;;;;;0.00;0.00;;;;;;;23.92;49.75;99128.66;5034114;28;20483;-59
2024/04/06 09:14:31;;;;;;;0.00;0.00;;;;;;;22.32;52.07;99137.31;5033126;28;20080;-58
2024/04/06 09:16:58;;;;;;;0.00;0.00;;;;;;;23.76;51.11;99136.63;5037345;28;20060;-60
2024/04/06 09:19:24;;;;;;;0.00;0.00;;;;;;;24.60;48.59;99122.91;5031738;28;20415;-58
2024/04/06 09:21:51;;;;;;;0.00;0.00;;;;;;;22.43;51.91;99122.19;5034638;28;20516;-58
2024/04/06 09:24:17;;;;;;;0.00;0.00;;;;;;;21.94;54.94;99118.78;5031690;28;20045;-58
2024/04/06 09:26:46;;;;;;;0.00;0.00;;;;;;;23.95;49.38;99119.75;5034642;28;20037;-58
2024/04/06 09:29:12;;;;;;;0.00;0.00;;;;;;;23.95;49.54;99124.44;5033279;28;20428;-58
2024/04/06 09:31:39;;;;;;;0.00;0.00;;;;;;;23.16;47.25;99121.34;5026348;28;20056;-58
2024/04/06 09:34:05;;;;;;;0.00;0.00;;;;;;;23.65;47.88;99122.53;5036945;28;20143;-58
2024/04/06 09:36:32;;;;;;;0.00;0.00;;;;;;;22.50;50.06;99129.88;5028789;28;20770;-58
2024/04/06 09:38:58;;;;;;;0.00;0.00;;;;;;;22.48;48.42;99130.19;5043909;28;20139;-58
2024/04/06 09:41:25;;;;;;;0.17;0.03;;;;;;;21.74;50.77;99123.78;5042882;28;20423;-58
2024/04/06 09:43:53;;;;;;;0.00;0.00;;;;;;;22.35;48.90;99115.59;5036515;28;20040;-57
2024/04/06 09:46:20;;;;;;;0.00;0.00;;;;;;;22.15;48.82;99114.31;5041913;28;20546;-57
2024/04/06 09:48:46;;;;;;;0.00;0.00;;;;;;;22.46;50.03;99109.81;5035778;28;20040;-58
2024/04/06 09:51:13;;;;;;;0.00;0.00;;;;;;;21.31;52.47;99099.09;5038447;28;20041;-58
2024/04/06 09:53:40;;;;;;;0.00;0.00;;;;;;;22.00;51.10;99098.44;5028166;28;20498;-58
2024/04/06 09:56:08;;;;;;;0.00;0.00;;;;;;;22.83;48.45;99102.81;5037703;28;20060;-58
2024/04/06 09:58:35;;;;;;;0.00;0.00;;;;;;;21.98;50.76;99090.56;5039989;28;20168;-58
2024/04/06 10:01:11;;;;;;;0.00;0.00;;;;;;;21.03;51.83;99085.72;5051604;28;20041;-58
2024/04/06 10:03:43;;;;;;;0.00;0.00;;;;;;;23.15;48.97;99089.69;5031267;28;20051;-57
2024/04/06 10:06:12;;;;;;;0.00;0.00;;;;;;;22.81;48.97;99086.75;5035194;28;20049;-58
2024/04/06 10:08:47;;;;;;;0.00;0.00;;;;;;;24.57;46.00;99085.25;5031642;28;20082;-58
2024/04/06 10:11:17;;;;;;;0.00;0.00;;;;;;;24.18;46.93;99089.31;5032416;28;20041;-63
2024/04/06 10:13:52;;;;;;;0.00;0.00;;;;;;;23.06;45.90;99088.91;5025317;28;20590;-57
2024/04/06 10:16:23;;;;;;;0.00;0.00;;;;;;;24.08;45.18;99090.50;5051595;28;20202;-59
2024/04/06 10:18:49;;;;;;;0.00;0.00;;;;;;;23.89;44.60;99086.34;5034673;28;20737;-57
2024/04/06 10:21:16;;;;;;;0.00;0.00;;;;;;;24.06;46.49;99084.56;5033634;28;20045;-57
2024/04/06 10:23:45;;;;;;;0.00;0.00;;;;;;;22.79;48.11;99080.00;5033461;28;20040;-58
2024/04/06 10:26:14;;;;;;;0.00;0.00;;;;;;;22.54;48.25;99065.28;5030188;28;20053;-57
2024/04/06 10:28:40;;;;;;;0.00;0.00;;;;;;;22.41;48.52;99072.56;5026812;28;20187;-58
2024/04/06 10:31:07;;;;;;;0.00;0.00;;;;;;;23.43;46.97;99052.50;5032332;28;20294;-58
2024/04/06 10:33:36;;;;;;;0.00;0.00;;;;;;;24.11;46.52;99049.59;5033610;28;20143;-57
2024/04/06 10:36:08;;;;;;;0.00;0.00;;;;;;;25.33;43.52;99055.59;5032786;28;20069;-57
2024/04/06 10:38:34;;;;;;;0.00;0.00;;;;;;;22.74;47.19;99053.66;5033947;28;20206;-57
2024/04/06 10:41:01;;;;;;;0.00;0.00;;;;;;;23.77;44.39;99041.69;5037428;28;20122;-57
2024/04/06 10:43:27;;;;;;;0.00;0.00;;;;;;;24.79;44.04;99033.88;5034620;28;20120;-58
2024/04/06 10:45:54;;;;;;;0.00;0.00;;;;;;;23.51;45.62;99033.63;5029437;28;20052;-58
2024/04/06 10:48:20;;;;;;;0.00;0.00;;;;;;;24.00;44.98;99036.66;5035396;28;20580;-57
2024/04/06 10:50:48;;;;;;;0.00;0.00;;;;;;;24.16;44.49;99037.59;5035671;28;20045;-58
2024/04/06 10:53:15;;;;;;;0.00;0.00;;;;;;;24.88;44.74;99040.84;5029206;28;20076;-57
2024/04/06 10:55:43;;;;;;;0.00;0.00;;;;;;;24.35;43.67;99044.53;5029273;28;20140;-58
2024/04/06 10:58:14;;;;;;;0.00;0.00;;;;;;;23.57;43.44;99041.31;5027925;28;20263;-58
2024/04/06 11:00:42;;;;;;;0.00;0.00;;;;;;;24.29;43.67;99043.94;5028895;28;20030;-58
2024/04/06 11:03:09;;;;;;;0.00;0.00;;;;;;;23.41;44.93;99053.97;5031870;28;20106;-58
2024/04/06 11:05:36;;;;;;;0.00;0.00;;;;;;;23.52;44.12;99040.72;5033736;28;20045;-58
2024/04/06 11:08:04;;;;;;;0.00;0.00;;;;;;;24.01;43.88;99030.84;5037672;28;20459;-58
2024/04/06 11:10:31;;;;;;;0.00;0.00;;;;;;;24.16;43.55;99025.84;5039070;28;20048;-58
2024/04/06 11:12:57;;;;;;;0.00;0.00;;;;;;;23.31;44.44;99025.09;5034912;28;20616;-58
2024/04/06 11:15:24;;;;;;;0.00;0.00;;;;;;;23.65;42.78;99015.03;5039679;28;20044;-58
2024/04/06 11:17:51;;;;;;;0.00;0.00;;;;;;;23.09;42.95;99001.59;5034911;28;20041;-58
2024/04/06 11:20:18;;;;;;;0.00;0.00;;;;;;;23.05;43.79;99000.66;5039622;28;20048;-58
2024/04/06 11:22:45;;;;;;;0.00;0.00;;;;;;;23.81;43.53;98994.19;5038284;28;20554;-58
2024/04/06 11:25:15;;;;;;;0.00;0.00;;;;;;;23.27;44.48;98987.81;5031228;28;20037;-58
2024/04/06 11:27:46;;;;;;;0.00;0.00;;;;;;;23.88;43.90;98977.19;5035632;28;20048;-58